createdAt,value
2018-12-16T00:00:27.404Z,6.97
2018-12-16T00:02:55.164Z,7.63
2018-12-16T00:05:22.634Z,7.00
2018-12-16T00:07:50.133Z,10.30
2018-12-16T00:10:17.596Z,8.60
2018-12-16T00:12:45.080Z,8.20
2018-12-16T00:15:12.594Z,8.70
2018-12-16T00:17:40.084Z,8.93
2018-12-16T00:20:07.610Z,8.73
2018-12-16T00:22:35.111Z,8.90
2018-12-16T00:25:02.643Z,9.23
2018-12-16T00:27:30.092Z,9.03
2018-12-16T00:29:57.580Z,9.70
2018-12-16T00:32:25.049Z,8.97
2018-12-16T00:34:52.574Z,8.87
2018-12-16T00:37:20.048Z,8.20
2018-12-16T00:39:47.743Z,6.57
2018-12-16T00:42:15.257Z,9.60
2018-12-16T00:44:42.735Z,8.10
2018-12-16T00:47:10.231Z,9.67
2018-12-16T00:49:37.691Z,8.20
2018-12-16T00:52:05.163Z,6.00
2018-12-16T00:54:33.251Z,9.13
2018-12-16T00:57:00.719Z,10.33
2018-12-16T00:59:28.189Z,11.23
2018-12-16T01:01:56.059Z,8.87
2018-12-16T01:04:23.567Z,11.30
2018-12-16T01:06:51.064Z,9.17
2018-12-16T01:09:18.537Z,10.10
2018-12-16T01:11:46.020Z,11.83
2018-12-16T01:14:13.614Z,10.43
2018-12-16T01:16:41.099Z,10.57
2018-12-16T01:19:08.614Z,9.27
2018-12-16T01:21:36.112Z,9.07
2018-12-16T01:24:03.627Z,10.03
2018-12-16T01:26:31.221Z,10.67
2018-12-16T01:28:58.686Z,9.33
2018-12-16T01:31:26.174Z,9.93
2018-12-16T01:33:53.637Z,10.17
2018-12-16T01:36:21.134Z,9.87
2018-12-16T01:38:48.610Z,9.20
2018-12-16T01:41:16.080Z,8.17
2018-12-16T01:43:43.561Z,9.80
2018-12-16T01:46:11.035Z,10.30
2018-12-16T01:48:38.487Z,8.40
2018-12-16T01:51:06.186Z,10.70
2018-12-16T01:53:33.631Z,11.17
2018-12-16T01:56:01.346Z,10.13
2018-12-16T01:58:28.805Z,9.40
2018-12-16T02:00:56.279Z,10.17
2018-12-16T02:03:23.738Z,10.83
2018-12-16T02:05:51.214Z,11.20
2018-12-16T02:08:18.677Z,9.60
2018-12-16T02:10:46.158Z,11.73
2018-12-16T02:13:14.540Z,8.57
2018-12-16T02:15:42.040Z,10.27
2018-12-16T02:18:09.542Z,10.03
2018-12-16T02:20:36.973Z,10.27
2018-12-16T02:23:04.461Z,10.03
2018-12-16T02:25:31.958Z,10.60
2018-12-16T02:27:59.513Z,8.90
2018-12-16T02:30:27.770Z,9.13
2018-12-16T02:32:55.242Z,9.53
2018-12-16T02:35:22.721Z,10.57
2018-12-16T02:37:50.219Z,9.33
2018-12-16T02:40:17.690Z,8.60
2018-12-16T02:42:45.181Z,9.20
2018-12-16T02:45:12.674Z,9.73
2018-12-16T02:47:40.166Z,10.67
2018-12-16T02:50:07.650Z,9.50
2018-12-16T02:52:35.139Z,9.90
2018-12-16T02:55:02.652Z,9.50
2018-12-16T02:57:30.122Z,10.13
2018-12-16T02:59:57.606Z,9.53
2018-12-16T03:02:25.159Z,9.70
2018-12-16T03:04:52.653Z,10.90
2018-12-16T03:07:20.137Z,9.93
2018-12-16T03:09:47.650Z,9.07
2018-12-16T03:12:15.101Z,6.37
2018-12-16T03:14:42.561Z,10.63
2018-12-16T03:17:10.024Z,9.80
2018-12-16T03:19:37.646Z,10.60
2018-12-16T03:22:05.133Z,12.00
2018-12-16T03:24:32.633Z,9.43
2018-12-16T03:27:00.105Z,10.17
2018-12-16T03:29:27.574Z,10.87
2018-12-16T03:31:55.045Z,9.20
2018-12-16T03:34:22.530Z,10.00
2018-12-16T03:36:49.988Z,9.10
2018-12-16T03:39:17.446Z,9.80
2018-12-16T03:41:44.918Z,7.70
2018-12-16T03:44:12.365Z,8.87
2018-12-16T03:46:39.820Z,6.17
2018-12-16T03:49:07.306Z,8.13
2018-12-16T03:51:34.769Z,10.80
2018-12-16T03:54:02.223Z,7.73
2018-12-16T03:56:29.691Z,9.10
2018-12-16T03:59:09.030Z,9.63
2018-12-16T04:01:36.488Z,10.33
2018-12-16T04:04:03.990Z,11.50
2018-12-16T04:06:31.472Z,10.03
2018-12-16T04:08:58.930Z,9.73
2018-12-16T04:11:26.403Z,9.80
2018-12-16T04:13:53.863Z,9.80
2018-12-16T04:16:21.324Z,9.97
2018-12-16T04:18:48.785Z,9.23
2018-12-16T04:21:16.271Z,9.27
2018-12-16T04:23:43.861Z,10.93
2018-12-16T04:26:11.337Z,9.60
2018-12-16T04:28:38.801Z,7.10
2018-12-16T04:31:06.356Z,9.67
2018-12-16T04:33:33.905Z,10.83
2018-12-16T04:36:01.391Z,9.33
2018-12-16T04:38:28.955Z,9.10
2018-12-16T04:40:56.418Z,9.50
2018-12-16T04:43:23.880Z,9.70
2018-12-16T04:45:51.594Z,8.77
2018-12-16T04:48:19.045Z,8.13
2018-12-16T04:50:46.514Z,10.13
2018-12-16T04:53:13.970Z,9.47
2018-12-16T04:55:41.461Z,10.80
2018-12-16T04:58:08.942Z,9.87
2018-12-16T05:00:36.434Z,9.13
2018-12-16T05:03:03.966Z,10.80
2018-12-16T05:05:31.462Z,7.07
2018-12-16T05:07:59.098Z,10.40
2018-12-16T05:10:29.173Z,9.17
2018-12-16T05:12:56.700Z,10.00
2018-12-16T05:15:24.272Z,7.23
2018-12-16T05:17:52.153Z,6.53
2018-12-16T05:20:19.654Z,10.03
2018-12-16T05:22:47.139Z,11.27
2018-12-16T05:25:14.629Z,8.53
2018-12-16T05:27:42.107Z,10.43
2018-12-16T05:30:10.621Z,11.43
2018-12-16T05:32:38.100Z,8.60
2018-12-16T05:35:06.535Z,11.20
2018-12-16T05:37:34.008Z,11.53
2018-12-16T05:40:01.483Z,8.50
2018-12-16T05:42:29.030Z,11.33
2018-12-16T05:44:56.488Z,10.33
2018-12-16T05:47:23.972Z,5.70
2018-12-16T05:49:51.674Z,10.27
2018-12-16T05:52:19.464Z,9.47
2018-12-16T05:54:46.930Z,10.00
2018-12-16T05:57:14.386Z,9.70
2018-12-16T05:59:41.872Z,11.00
2018-12-16T06:02:09.361Z,9.77
2018-12-16T06:04:36.842Z,8.93
2018-12-16T06:07:04.304Z,9.17
2018-12-16T06:09:32.107Z,9.60
2018-12-16T06:11:59.556Z,9.77
2018-12-16T06:14:27.041Z,10.93
2018-12-16T06:16:54.563Z,10.53
2018-12-16T06:19:22.023Z,10.50
2018-12-16T06:21:49.610Z,10.60
2018-12-16T06:24:17.097Z,10.07
2018-12-16T06:26:44.582Z,11.30
2018-12-16T06:29:12.937Z,9.87
2018-12-16T06:31:40.446Z,11.80
2018-12-16T06:34:07.892Z,10.30
2018-12-16T06:36:35.370Z,11.03
2018-12-16T06:39:04.362Z,10.93
2018-12-16T06:44:05.641Z,10.70
2018-12-16T06:46:33.190Z,12.10
2018-12-16T06:49:00.645Z,11.10
2018-12-16T06:51:28.140Z,11.73
2018-12-16T06:54:02.139Z,11.23
2018-12-16T06:56:25.075Z,12.93
2018-12-16T06:58:52.533Z,10.80
2018-12-16T07:01:20.006Z,10.90
2018-12-16T07:03:47.474Z,10.93
2018-12-16T07:06:14.929Z,11.17
2018-12-16T07:08:42.406Z,10.73
2018-12-16T07:11:09.932Z,11.43
2018-12-16T07:13:37.421Z,11.03
2018-12-16T07:16:05.010Z,11.80
2018-12-16T07:18:32.551Z,12.03
2018-12-16T07:21:00.038Z,12.30
2018-12-16T07:23:27.534Z,14.13
2018-12-16T07:25:55.019Z,11.20
2018-12-16T07:28:22.490Z,11.40
2018-12-16T07:30:50.220Z,12.33
2018-12-16T07:33:17.795Z,13.20
2018-12-16T07:35:45.293Z,12.47
2018-12-16T07:38:12.828Z,11.33
2018-12-16T07:40:40.320Z,12.37
2018-12-16T07:43:07.823Z,11.10
2018-12-16T07:45:35.321Z,11.30
2018-12-16T07:48:02.800Z,12.03
2018-12-16T07:50:30.315Z,12.07
2018-12-16T07:52:57.916Z,12.30
2018-12-16T07:55:25.444Z,13.43
2018-12-16T07:57:52.934Z,11.87
2018-12-16T08:00:20.505Z,12.00
2018-12-16T08:02:48.265Z,12.77
2018-12-16T08:05:15.768Z,13.20
2018-12-16T08:07:43.219Z,11.47
2018-12-16T08:10:10.689Z,11.73
2018-12-16T08:12:38.194Z,11.03
2018-12-16T08:15:06.000Z,13.10
2018-12-16T08:17:33.453Z,11.30
2018-12-16T08:20:00.973Z,11.90
2018-12-16T08:22:28.436Z,10.80
2018-12-16T08:24:55.911Z,12.03
2018-12-16T08:27:23.411Z,12.60
2018-12-16T08:29:50.858Z,11.57
2018-12-16T08:32:18.328Z,10.80
2018-12-16T08:34:45.787Z,12.13
2018-12-16T08:37:13.280Z,12.40
2018-12-16T08:39:40.760Z,12.00
2018-12-16T08:42:08.248Z,11.30
2018-12-16T08:44:35.715Z,12.20
2018-12-16T08:47:03.216Z,10.90
2018-12-16T08:49:30.669Z,10.77
2018-12-16T08:51:58.158Z,11.03
2018-12-16T08:54:30.046Z,11.90
2018-12-16T08:56:55.118Z,11.77
2018-12-16T08:59:22.584Z,10.53
2018-12-16T09:01:50.065Z,11.57
2018-12-16T09:04:17.599Z,10.47
2018-12-16T09:06:45.124Z,14.13
2018-12-16T09:09:12.950Z,14.47
2018-12-16T09:11:40.426Z,12.37
2018-12-16T09:14:07.890Z,15.90
2018-12-16T09:16:35.370Z,13.30
2018-12-16T09:19:02.841Z,11.47
2018-12-16T09:21:30.346Z,11.90
2018-12-16T09:23:57.819Z,11.27
2018-12-16T09:26:25.311Z,11.80
2018-12-16T09:28:52.799Z,11.87
2018-12-16T09:31:20.279Z,12.80
2018-12-16T09:33:47.742Z,11.70
2018-12-16T09:36:15.194Z,11.90
2018-12-16T09:38:42.670Z,11.40
2018-12-16T09:41:10.121Z,10.30
2018-12-16T09:43:37.593Z,10.80
2018-12-16T09:46:05.040Z,10.97
2018-12-16T09:48:32.540Z,12.37
2018-12-16T09:51:00.027Z,11.20
2018-12-16T09:53:27.521Z,11.80
2018-12-16T09:55:54.969Z,14.70
2018-12-16T09:58:23.201Z,12.87
2018-12-16T10:00:50.840Z,12.80
2018-12-16T10:03:18.328Z,11.93
2018-12-16T10:05:45.789Z,13.70
2018-12-16T10:08:13.272Z,12.67
2018-12-16T10:10:40.738Z,11.90
2018-12-16T10:13:08.221Z,12.53
2018-12-16T10:15:35.697Z,12.53
2018-12-16T10:18:03.193Z,12.87
2018-12-16T10:20:30.675Z,14.30
2018-12-16T10:22:58.229Z,11.47
2018-12-16T10:25:25.713Z,12.77
2018-12-16T10:27:53.178Z,11.83
2018-12-16T10:30:20.661Z,13.10
2018-12-16T10:32:48.131Z,14.80
2018-12-16T10:35:15.615Z,12.80
2018-12-16T10:37:43.998Z,11.10
2018-12-16T10:40:11.507Z,11.50
2018-12-16T10:42:39.083Z,12.30
2018-12-16T10:45:06.913Z,12.10
2018-12-16T10:47:34.410Z,13.10
2018-12-16T10:50:01.905Z,12.20
2018-12-16T10:52:29.634Z,13.67
2018-12-16T10:54:58.513Z,12.83
2018-12-16T10:57:26.327Z,10.90
2018-12-16T10:59:53.902Z,12.93
2018-12-16T11:02:21.450Z,13.30
2018-12-16T11:04:49.020Z,12.97
2018-12-16T11:07:16.551Z,11.90
2018-12-16T11:09:44.002Z,12.57
2018-12-16T11:12:11.469Z,11.97
2018-12-16T11:14:38.951Z,11.60
2018-12-16T11:17:06.417Z,13.80
2018-12-16T11:19:33.870Z,12.40
2018-12-16T11:22:01.356Z,13.97
2018-12-16T11:24:28.848Z,12.43
2018-12-16T11:26:56.343Z,13.60
2018-12-16T11:29:23.810Z,11.50
2018-12-16T11:31:51.280Z,10.87
2018-12-16T11:34:18.799Z,12.07
2018-12-16T11:36:46.307Z,10.53
2018-12-16T11:39:13.831Z,11.50
2018-12-16T11:41:41.384Z,10.83
2018-12-16T11:44:08.825Z,11.20
2018-12-16T11:46:36.402Z,12.23
2018-12-16T11:49:03.971Z,12.37
2018-12-16T11:51:31.675Z,11.87
2018-12-16T11:53:59.189Z,12.10
2018-12-16T11:56:26.673Z,11.47
2018-12-16T11:58:54.129Z,12.20
2018-12-16T12:01:21.613Z,12.07
2018-12-16T12:03:49.160Z,12.33
2018-12-16T12:06:16.638Z,11.53
2018-12-16T12:08:44.261Z,10.63
2018-12-16T12:11:11.786Z,10.73
2018-12-16T12:13:39.249Z,10.93
2018-12-16T12:16:06.735Z,11.53
2018-12-16T12:18:34.663Z,12.03
2018-12-16T12:21:02.239Z,11.27
2018-12-16T12:23:29.802Z,11.30
2018-12-16T12:25:57.289Z,10.87
2018-12-16T12:28:25.173Z,10.13
2018-12-16T12:30:52.645Z,10.33
2018-12-16T12:33:20.100Z,10.90
2018-12-16T12:35:47.574Z,9.70
2018-12-16T12:38:15.026Z,10.00
2018-12-16T12:40:42.482Z,11.57
2018-12-16T12:43:09.950Z,8.37
2018-12-16T12:45:37.465Z,10.30
2018-12-16T12:48:05.053Z,10.43
2018-12-16T12:50:32.539Z,11.07
2018-12-16T12:53:00.018Z,11.47
2018-12-16T12:55:27.522Z,11.27
2018-12-16T12:57:54.989Z,10.50
2018-12-16T13:00:22.494Z,9.50
2018-12-16T13:02:49.946Z,9.63
2018-12-16T13:05:17.418Z,11.83
2018-12-16T13:07:44.938Z,11.50
2018-12-16T13:10:12.441Z,11.23
2018-12-16T13:12:39.990Z,10.70
2018-12-16T13:15:08.277Z,10.00
2018-12-16T13:17:35.738Z,11.40
2018-12-16T13:20:04.463Z,11.33
2018-12-16T13:22:31.930Z,11.13
2018-12-16T13:25:11.485Z,11.33
2018-12-16T13:27:38.969Z,11.63
2018-12-16T13:30:07.064Z,11.53
2018-12-16T13:35:15.461Z,10.73
2018-12-16T13:37:43.077Z,10.27
2018-12-16T13:40:10.662Z,10.03
2018-12-16T13:42:39.137Z,11.63
2018-12-16T13:45:06.640Z,10.00
2018-12-16T13:47:34.115Z,9.83
2018-12-16T13:50:01.755Z,10.00
2018-12-16T13:52:29.578Z,10.77
2018-12-16T13:54:57.756Z,8.90
2018-12-16T13:57:25.464Z,9.03
2018-12-16T13:59:53.018Z,8.50
2018-12-16T14:02:20.578Z,9.37
2018-12-16T14:04:48.114Z,9.70
2018-12-16T14:07:15.613Z,9.20
2018-12-16T14:09:43.166Z,8.33
2018-12-16T14:12:10.806Z,8.17
2018-12-16T14:14:38.296Z,13.23
2018-12-16T14:17:05.792Z,10.00
2018-12-16T14:19:33.271Z,8.83
2018-12-16T14:22:00.750Z,8.40
2018-12-16T14:24:28.232Z,9.83
2018-12-16T14:26:55.722Z,9.47
2018-12-16T14:29:24.251Z,8.27
2018-12-16T14:31:51.924Z,7.90
2018-12-16T14:34:19.414Z,8.40
2018-12-16T14:36:46.997Z,9.83
2018-12-16T14:39:14.707Z,7.13
2018-12-16T14:41:42.158Z,8.03
2018-12-16T14:44:10.530Z,8.43
2018-12-16T14:46:38.026Z,8.00
2018-12-16T14:49:05.522Z,7.67
2018-12-16T14:51:33.167Z,8.10
2018-12-16T14:54:00.696Z,8.60
2018-12-16T14:56:28.225Z,7.97
2018-12-16T14:58:55.782Z,6.80
2018-12-16T15:01:23.363Z,8.17
2018-12-16T15:03:51.863Z,9.00
2018-12-16T15:06:19.454Z,7.83
2018-12-16T15:08:48.545Z,8.40
2018-12-16T15:11:16.210Z,8.93
2018-12-16T15:13:43.911Z,7.60
2018-12-16T15:16:11.567Z,7.50
2018-12-16T15:18:39.185Z,7.60
2018-12-16T15:21:07.656Z,6.83
2018-12-16T15:23:36.203Z,7.20
2018-12-16T15:26:03.900Z,8.97
2018-12-16T15:28:34.198Z,7.90
2018-12-16T15:31:01.707Z,8.87
2018-12-16T15:33:29.226Z,6.20
2018-12-16T15:35:57.608Z,9.13
2018-12-16T15:38:25.107Z,8.30
2018-12-16T15:40:52.676Z,8.03
2018-12-16T15:43:20.158Z,7.60
2018-12-16T15:45:47.668Z,7.50
2018-12-16T15:48:15.149Z,7.53
2018-12-16T15:50:42.633Z,7.60
2018-12-16T15:53:10.243Z,6.83
2018-12-16T15:55:37.769Z,7.73
2018-12-16T15:58:05.339Z,8.27
2018-12-16T16:00:32.801Z,12.00
2018-12-16T16:03:00.270Z,7.70
2018-12-16T16:05:27.731Z,7.80
2018-12-16T16:07:55.206Z,6.27
2018-12-16T16:10:22.679Z,5.23
2018-12-16T16:12:50.183Z,5.10
2018-12-16T16:15:17.693Z,5.40
2018-12-16T16:17:45.318Z,4.73
2018-12-16T16:20:12.845Z,4.50
2018-12-16T16:22:40.377Z,5.83
2018-12-16T16:25:07.975Z,6.27
2018-12-16T16:27:35.561Z,5.50
2018-12-16T16:30:04.459Z,4.80
2018-12-16T16:32:32.038Z,4.47
2018-12-16T16:34:59.486Z,3.60
2018-12-16T16:37:26.964Z,4.37
2018-12-16T16:39:54.417Z,3.93
2018-12-16T16:42:21.881Z,5.50
2018-12-16T16:44:49.335Z,4.10
2018-12-16T16:47:16.845Z,4.60
2018-12-16T16:49:44.355Z,7.40
2018-12-16T16:52:11.834Z,5.80
2018-12-16T16:54:40.290Z,6.27
2018-12-16T16:57:07.779Z,4.20
2018-12-16T16:59:35.266Z,6.03
2018-12-16T17:02:02.770Z,5.67
2018-12-16T17:04:30.245Z,7.53
2018-12-16T17:06:57.713Z,8.10
2018-12-16T17:09:25.205Z,5.77
2018-12-16T17:11:52.669Z,7.40
2018-12-16T17:14:20.225Z,5.10
2018-12-16T17:16:47.692Z,4.93
2018-12-16T17:19:15.423Z,12.50
2018-12-16T17:21:43.102Z,6.47
2018-12-16T17:24:10.607Z,4.30
2018-12-16T17:26:38.076Z,5.13
2018-12-16T17:29:05.531Z,5.30
2018-12-16T17:31:33.012Z,4.70
2018-12-16T17:34:00.467Z,4.60
2018-12-16T17:36:27.953Z,4.50
2018-12-16T17:38:55.430Z,4.87
2018-12-16T17:41:22.902Z,3.73
2018-12-16T17:43:50.366Z,5.30
2018-12-16T17:46:17.850Z,5.20
2018-12-16T17:48:45.306Z,4.47
2018-12-16T17:51:12.760Z,3.83
2018-12-16T17:53:40.223Z,4.33
2018-12-16T17:56:07.890Z,5.00
2018-12-16T17:58:35.481Z,4.50
2018-12-16T18:01:03.001Z,6.93
2018-12-16T18:03:30.474Z,5.20
2018-12-16T18:05:58.033Z,5.20
2018-12-16T18:08:25.544Z,5.03
2018-12-16T18:10:53.051Z,6.43
2018-12-16T18:13:20.546Z,6.40
2018-12-16T18:15:48.107Z,7.77
2018-12-16T18:18:15.603Z,6.40
2018-12-16T18:20:43.108Z,6.30
2018-12-16T18:23:10.572Z,5.77
2018-12-16T18:25:38.069Z,5.20
2018-12-16T18:28:05.548Z,5.73
2018-12-16T18:30:33.019Z,3.83
2018-12-16T18:33:00.805Z,4.20
2018-12-16T18:35:28.287Z,7.33
2018-12-16T18:37:55.974Z,5.23
2018-12-16T18:40:23.494Z,5.13
2018-12-16T18:42:50.974Z,4.20
2018-12-16T18:45:18.502Z,3.90
2018-12-16T18:47:45.981Z,3.80
2018-12-16T18:50:13.495Z,3.30
2018-12-16T18:52:40.969Z,3.37
2018-12-16T18:55:08.475Z,3.40
2018-12-16T18:57:35.976Z,3.50
2018-12-16T19:00:05.179Z,2.90
2018-12-16T19:02:32.636Z,5.07
2018-12-16T19:05:00.082Z,5.27
2018-12-16T19:07:27.569Z,5.40
2018-12-16T19:09:55.043Z,4.87
2018-12-16T19:12:22.513Z,4.67
2018-12-16T19:14:50.483Z,4.50
2018-12-16T19:17:17.937Z,4.67
2018-12-16T19:19:45.419Z,5.07
2018-12-16T19:22:12.925Z,5.20
2018-12-16T19:24:40.413Z,5.60
2018-12-16T19:27:07.890Z,5.30
2018-12-16T19:29:35.417Z,4.90
2018-12-16T19:32:03.616Z,4.33
2018-12-16T19:34:31.078Z,4.07
2018-12-16T19:36:58.548Z,4.13
2018-12-16T19:39:26.013Z,4.20
2018-12-16T19:41:53.486Z,4.90
2018-12-16T19:44:20.979Z,4.47
2018-12-16T19:46:49.040Z,4.50
2018-12-16T19:49:16.559Z,3.70
2018-12-16T19:51:44.021Z,3.77
2018-12-16T19:54:11.499Z,4.97
2018-12-16T19:56:38.981Z,5.30
2018-12-16T19:59:06.468Z,4.47
2018-12-16T20:01:33.945Z,5.10
2018-12-16T20:04:06.968Z,4.37
2018-12-16T20:06:40.176Z,4.30
2018-12-16T20:09:07.723Z,4.87
2018-12-16T20:11:35.215Z,3.80
2018-12-16T20:14:02.707Z,4.10
2018-12-16T20:16:30.730Z,54.87
2018-12-16T20:18:58.197Z,6.13
2018-12-16T20:21:25.668Z,4.47
2018-12-16T20:23:53.165Z,10.30
2018-12-16T20:26:20.633Z,5.00
2018-12-16T20:28:48.142Z,3.20
2018-12-16T20:31:15.657Z,7.70
2018-12-16T20:33:43.154Z,4.40
2018-12-16T20:36:10.663Z,4.10
2018-12-16T20:38:38.129Z,4.47
2018-12-16T20:41:05.600Z,4.23
2018-12-16T20:43:33.073Z,4.30
2018-12-16T20:46:00.569Z,4.43
2018-12-16T20:48:28.153Z,4.53
2018-12-16T20:50:55.610Z,3.70
2018-12-16T20:53:23.085Z,4.80
2018-12-16T20:55:50.550Z,4.00
2018-12-16T20:58:18.047Z,3.10
2018-12-16T21:00:45.479Z,4.47
2018-12-16T21:03:12.951Z,3.90
2018-12-16T21:05:40.430Z,3.63
2018-12-16T21:08:07.902Z,3.77
2018-12-16T21:10:35.382Z,2.57
2018-12-16T21:13:08.481Z,3.30
2018-12-16T21:15:41.614Z,3.33
2018-12-16T21:18:14.761Z,3.37
2018-12-16T21:20:42.242Z,3.73
2018-12-16T21:23:09.762Z,3.03
2018-12-16T21:25:37.204Z,3.83
2018-12-16T21:28:04.681Z,3.03
2018-12-16T21:30:32.162Z,3.30
2018-12-16T21:32:59.646Z,4.00
2018-12-16T21:35:27.101Z,3.20
2018-12-16T21:37:54.593Z,2.70
2018-12-16T21:40:22.082Z,3.70
2018-12-16T21:42:49.547Z,2.40
2018-12-16T21:45:17.036Z,5.13
2018-12-16T21:47:44.505Z,3.27
2018-12-16T21:50:12.687Z,2.40
2018-12-16T21:52:40.307Z,2.70
2018-12-16T21:55:07.786Z,2.43
2018-12-16T21:57:35.261Z,3.40
2018-12-16T22:00:02.984Z,3.20
2018-12-16T22:02:30.566Z,3.03
2018-12-16T22:04:59.157Z,2.90
2018-12-16T22:07:26.645Z,2.27
2018-12-16T22:09:54.155Z,2.67
2018-12-16T22:14:55.445Z,8.33
2018-12-16T22:17:24.153Z,4.23
2018-12-16T22:19:51.626Z,3.93
2018-12-16T22:22:19.288Z,3.00
2018-12-16T22:24:46.756Z,2.30
2018-12-16T22:27:14.255Z,2.17
2018-12-16T22:29:41.740Z,2.77
2018-12-16T22:32:09.220Z,3.63
2018-12-16T22:34:36.677Z,6.70
2018-12-16T22:37:04.154Z,3.03
2018-12-16T22:39:31.997Z,3.90
2018-12-16T22:41:59.466Z,2.90
2018-12-16T22:44:26.951Z,4.23
2018-12-16T22:46:54.455Z,6.40
2018-12-16T22:49:21.923Z,6.00
2018-12-16T22:51:49.397Z,4.83
2018-12-16T22:54:16.885Z,3.70
2018-12-16T22:56:44.342Z,5.43
2018-12-16T22:59:11.835Z,5.77
2018-12-16T23:01:39.305Z,6.40
2018-12-16T23:04:06.808Z,6.40
2018-12-16T23:06:34.257Z,6.10
2018-12-16T23:09:01.868Z,6.67
2018-12-16T23:11:29.366Z,6.73
2018-12-16T23:13:56.822Z,5.97
2018-12-16T23:16:24.313Z,5.20
2018-12-16T23:18:51.773Z,7.00
2018-12-16T23:21:19.596Z,5.90
2018-12-16T23:23:47.074Z,5.40
2018-12-16T23:26:14.534Z,4.77
2018-12-16T23:28:42.015Z,4.77
2018-12-16T23:31:09.488Z,4.00
2018-12-16T23:33:36.928Z,4.80
2018-12-16T23:36:04.414Z,4.70
2018-12-16T23:38:31.871Z,4.47
2018-12-16T23:40:59.351Z,3.87
2018-12-16T23:43:26.797Z,4.97
2018-12-16T23:45:54.270Z,4.43
2018-12-16T23:48:21.822Z,3.80
2018-12-16T23:50:49.299Z,4.30
2018-12-16T23:53:16.858Z,4.30
2018-12-16T23:55:44.311Z,4.50
2018-12-16T23:58:11.770Z,4.47
